createdAt,value
2018-12-27T00:01:47.508Z,0.33
2018-12-27T00:04:16.148Z,0.31
2018-12-27T00:06:44.798Z,0.25
2018-12-27T00:09:13.840Z,0.26
2018-12-27T00:11:42.555Z,0.31
2018-12-27T00:14:11.232Z,0.31
2018-12-27T00:16:39.879Z,0.36
2018-12-27T00:19:08.502Z,0.46
2018-12-27T00:21:37.158Z,0.45
2018-12-27T00:24:06.147Z,0.36
2018-12-27T00:26:35.097Z,0.44
2018-12-27T00:29:04.052Z,0.44
2018-12-27T00:31:32.876Z,0.33
2018-12-27T00:34:01.841Z,0.29
2018-12-27T00:36:31.023Z,0.24
2018-12-27T00:38:59.825Z,0.33
2018-12-27T00:41:28.669Z,0.49
2018-12-27T00:43:57.515Z,0.37
2018-12-27T00:46:26.331Z,0.33
2018-12-27T00:48:55.167Z,0.25
2018-12-27T00:51:23.983Z,0.33
2018-12-27T00:53:53.146Z,0.34
2018-12-27T00:56:21.952Z,0.25
2018-12-27T00:58:50.865Z,0.28
2018-12-27T01:01:19.739Z,0.28
2018-12-27T01:03:48.549Z,0.28
2018-12-27T01:06:17.367Z,0.27
2018-12-27T01:08:46.179Z,0.34
2018-12-27T01:11:14.993Z,0.35
2018-12-27T01:13:43.814Z,0.32
2018-12-27T01:16:12.632Z,0.38
2018-12-27T01:18:41.521Z,0.36
2018-12-27T01:21:10.344Z,0.44
2018-12-27T01:23:39.157Z,0.42
2018-12-27T01:26:07.964Z,0.28
2018-12-27T01:28:36.781Z,0.34
2018-12-27T01:31:05.598Z,0.24
2018-12-27T01:33:35.933Z,0.18
2018-12-27T01:36:04.819Z,0.28
2018-12-27T01:38:34.091Z,0.38
2018-12-27T01:41:02.935Z,0.42
2018-12-27T01:43:31.763Z,0.44
2018-12-27T01:46:00.587Z,0.39
2018-12-27T01:48:29.408Z,0.36
2018-12-27T01:50:58.219Z,0.38
2018-12-27T01:53:27.031Z,0.35
2018-12-27T01:55:56.145Z,0.37
2018-12-27T01:58:24.943Z,0.35
2018-12-27T02:00:53.931Z,0.27
2018-12-27T02:03:26.485Z,0.26
2018-12-27T02:05:53.255Z,0.35
2018-12-27T02:08:22.075Z,0.41
2018-12-27T02:10:50.891Z,0.44
2018-12-27T02:13:19.691Z,0.42
2018-12-27T02:15:48.512Z,0.47
2018-12-27T02:18:18.312Z,0.54
2018-12-27T02:20:47.134Z,0.47
2018-12-27T02:23:15.961Z,0.51
2018-12-27T02:25:44.774Z,0.59
2018-12-27T02:28:13.580Z,0.55
2018-12-27T02:30:42.417Z,0.59
2018-12-27T02:33:11.321Z,0.55
2018-12-27T02:35:40.439Z,0.60
2018-12-27T02:38:09.266Z,0.69
2018-12-27T02:40:38.075Z,0.67
2018-12-27T02:43:06.889Z,0.73
2018-12-27T02:45:35.752Z,0.69
2018-12-27T02:48:04.568Z,0.61
2018-12-27T02:50:33.389Z,0.62
2018-12-27T02:53:02.311Z,0.62
2018-12-27T02:55:31.146Z,0.62
2018-12-27T02:57:59.955Z,0.66
2018-12-27T03:00:28.771Z,0.65
2018-12-27T03:02:57.570Z,0.71
2018-12-27T03:05:26.384Z,0.67
2018-12-27T03:07:55.211Z,0.65
2018-12-27T03:10:24.033Z,0.67
2018-12-27T03:12:52.832Z,0.71
2018-12-27T03:15:21.651Z,0.65
2018-12-27T03:17:50.532Z,0.68
2018-12-27T03:20:19.336Z,0.71
2018-12-27T03:22:48.523Z,0.71
2018-12-27T03:25:17.348Z,0.69
2018-12-27T03:27:46.158Z,0.65
2018-12-27T03:30:14.995Z,0.69
2018-12-27T03:32:43.805Z,0.66
2018-12-27T03:35:12.614Z,0.69
2018-12-27T03:37:41.462Z,0.72
2018-12-27T03:40:10.276Z,0.67
2018-12-27T03:42:39.752Z,0.71
2018-12-27T03:45:08.892Z,0.77
2018-12-27T03:47:37.718Z,0.81
2018-12-27T03:50:06.583Z,0.78
2018-12-27T03:52:35.432Z,0.73
2018-12-27T03:55:04.238Z,0.78
2018-12-27T03:57:33.050Z,0.79
2018-12-27T04:00:01.878Z,0.82
2018-12-27T04:02:30.757Z,0.83
2018-12-27T04:04:59.857Z,0.76
2018-12-27T04:07:28.671Z,0.83
2018-12-27T04:09:57.755Z,0.82
2018-12-27T04:12:26.560Z,0.77
2018-12-27T04:14:55.388Z,0.81
2018-12-27T04:17:24.093Z,0.79
2018-12-27T04:19:52.727Z,0.84
2018-12-27T04:22:21.385Z,0.79
2018-12-27T04:24:50.017Z,0.78
2018-12-27T04:27:18.661Z,0.77
2018-12-27T04:29:47.307Z,0.75
2018-12-27T04:32:15.945Z,0.71
2018-12-27T04:34:44.604Z,0.83
2018-12-27T04:37:13.596Z,0.77
2018-12-27T04:39:42.259Z,0.78
2018-12-27T04:42:10.919Z,0.77
2018-12-27T04:44:39.667Z,0.78
2018-12-27T04:47:08.317Z,0.73
2018-12-27T04:49:36.951Z,0.75
2018-12-27T04:52:05.595Z,0.73
2018-12-27T04:54:34.223Z,0.74
2018-12-27T04:57:02.860Z,0.77
2018-12-27T04:59:31.867Z,0.79
2018-12-27T05:02:00.862Z,0.81
2018-12-27T05:04:29.492Z,0.78
2018-12-27T05:06:58.436Z,0.75
2018-12-27T05:09:27.075Z,0.80
2018-12-27T05:11:55.714Z,0.80
2018-12-27T05:14:24.362Z,0.81
2018-12-27T05:16:53.688Z,0.81
2018-12-27T05:19:22.590Z,0.74
2018-12-27T05:21:51.269Z,0.76
2018-12-27T05:24:19.906Z,0.81
2018-12-27T05:26:48.830Z,0.81
2018-12-27T05:29:17.543Z,0.78
2018-12-27T05:31:46.183Z,0.78
2018-12-27T05:34:14.815Z,0.77
2018-12-27T05:36:43.496Z,0.81
2018-12-27T05:39:12.114Z,0.82
2018-12-27T05:41:40.766Z,0.82
2018-12-27T05:44:09.436Z,0.81
2018-12-27T05:46:38.070Z,0.77
2018-12-27T05:49:06.713Z,0.78
2018-12-27T05:51:35.646Z,0.80
2018-12-27T05:54:04.274Z,0.73
2018-12-27T05:56:32.908Z,0.74
2018-12-27T05:59:01.550Z,0.79
2018-12-27T06:01:30.590Z,0.77
2018-12-27T06:03:59.232Z,0.77
2018-12-27T06:06:27.886Z,0.78
2018-12-27T06:08:56.521Z,0.81
2018-12-27T06:11:25.151Z,0.81
2018-12-27T06:13:54.087Z,0.78
2018-12-27T06:16:22.731Z,0.82
2018-12-27T06:18:51.379Z,0.88
2018-12-27T06:21:20.115Z,0.81
2018-12-27T06:23:48.741Z,0.78
2018-12-27T06:26:17.375Z,0.78
2018-12-27T06:28:47.707Z,0.78
2018-12-27T06:31:16.710Z,0.82
2018-12-27T06:33:46.637Z,0.84
2018-12-27T06:36:15.363Z,0.80
2018-12-27T06:38:44.067Z,0.76
2018-12-27T06:41:12.700Z,0.85
2018-12-27T06:43:41.363Z,0.88
2018-12-27T06:46:10.039Z,0.78
2018-12-27T06:48:38.671Z,0.77
2018-12-27T06:51:07.635Z,0.74
2018-12-27T06:53:36.719Z,0.78
2018-12-27T06:56:05.351Z,0.75
2018-12-27T06:58:37.721Z,0.75
2018-12-27T07:01:04.337Z,0.74
2018-12-27T07:03:32.964Z,0.82
2018-12-27T07:06:01.603Z,0.77
2018-12-27T07:08:30.256Z,0.74
2018-12-27T07:10:59.958Z,0.73
2018-12-27T07:13:28.662Z,0.77
2018-12-27T07:15:57.366Z,0.82
2018-12-27T07:18:26.020Z,0.80
2018-12-27T07:20:54.668Z,0.89
2018-12-27T07:23:23.311Z,0.97
2018-12-27T07:25:51.962Z,0.97
2018-12-27T07:28:20.619Z,0.86
2018-12-27T07:30:49.252Z,0.97
2018-12-27T07:33:18.276Z,1.09
2018-12-27T07:35:46.936Z,1.11
2018-12-27T07:38:15.891Z,1.27
2018-12-27T07:40:45.027Z,1.27
2018-12-27T07:43:13.686Z,1.35
2018-12-27T07:45:42.323Z,1.37
2018-12-27T07:48:11.057Z,1.25
2018-12-27T07:50:39.731Z,1.20
2018-12-27T07:53:08.375Z,1.22
2018-12-27T07:55:37.017Z,1.34
2018-12-27T07:58:05.741Z,1.32
2018-12-27T08:00:34.375Z,1.25
2018-12-27T08:03:03.080Z,1.21
2018-12-27T08:05:31.775Z,1.21
2018-12-27T08:08:00.548Z,1.05
2018-12-27T08:10:29.254Z,1.09
2018-12-27T08:12:57.908Z,1.13
2018-12-27T08:15:26.534Z,1.20
2018-12-27T08:17:55.508Z,1.23
2018-12-27T08:20:24.156Z,1.30
2018-12-27T08:22:52.788Z,1.44
2018-12-27T08:25:21.511Z,1.60
2018-12-27T08:27:50.220Z,1.66
2018-12-27T08:30:18.852Z,1.73
2018-12-27T08:32:48.652Z,1.83
2018-12-27T08:35:17.476Z,1.96
2018-12-27T08:37:46.145Z,2.18
2018-12-27T08:40:15.107Z,2.31
2018-12-27T08:42:44.020Z,2.44
2018-12-27T08:45:12.919Z,2.49
2018-12-27T08:47:41.555Z,2.58
2018-12-27T08:50:10.279Z,2.64
2018-12-27T08:52:38.946Z,2.59
2018-12-27T08:55:07.592Z,2.78
2018-12-27T08:57:36.719Z,2.73
2018-12-27T09:00:06.099Z,2.77
2018-12-27T09:02:34.799Z,2.72
2018-12-27T09:05:03.449Z,2.83
2018-12-27T09:07:32.291Z,2.71
2018-12-27T09:10:00.923Z,2.87
2018-12-27T09:12:29.874Z,2.83
2018-12-27T09:14:58.684Z,2.96
2018-12-27T09:17:27.326Z,2.93
2018-12-27T09:19:56.022Z,2.86
2018-12-27T09:22:24.648Z,2.66
2018-12-27T09:24:53.293Z,2.56
2018-12-27T09:27:22.006Z,2.66
2018-12-27T09:29:50.659Z,2.65
2018-12-27T09:32:19.291Z,2.50
2018-12-27T09:34:47.933Z,2.51
2018-12-27T09:37:16.755Z,2.42
2018-12-27T09:39:45.703Z,2.53
2018-12-27T09:42:14.683Z,2.73
2018-12-27T09:44:43.322Z,2.80
2018-12-27T09:47:11.963Z,2.93
2018-12-27T09:49:40.614Z,2.92
2018-12-27T09:52:09.360Z,3.04
2018-12-27T09:54:38.021Z,2.79
2018-12-27T09:57:07.388Z,2.55
2018-12-27T09:59:36.147Z,2.48
2018-12-27T10:02:04.856Z,2.43
2018-12-27T10:04:33.713Z,2.48
2018-12-27T10:07:02.502Z,2.49
2018-12-27T10:09:31.164Z,2.68
2018-12-27T10:11:59.822Z,2.75
2018-12-27T10:14:28.448Z,2.62
2018-12-27T10:16:57.234Z,2.86
2018-12-27T10:19:25.932Z,2.99
2018-12-27T10:21:54.570Z,3.01
2018-12-27T10:24:23.211Z,3.01
2018-12-27T10:26:51.884Z,3.08
2018-12-27T10:29:20.527Z,2.98
2018-12-27T10:31:49.232Z,3.12
2018-12-27T10:34:17.916Z,3.37
2018-12-27T10:36:46.588Z,3.31
2018-12-27T10:39:15.813Z,3.34
2018-12-27T10:41:44.449Z,3.39
2018-12-27T10:44:13.347Z,3.33
2018-12-27T10:46:41.987Z,3.41
2018-12-27T10:49:11.051Z,3.26
2018-12-27T10:51:40.435Z,3.38
2018-12-27T10:54:09.273Z,3.39
2018-12-27T10:56:37.891Z,3.46
2018-12-27T10:59:06.527Z,3.35
2018-12-27T11:01:36.017Z,3.46
2018-12-27T11:04:05.739Z,3.44
2018-12-27T11:06:34.521Z,3.67
2018-12-27T11:09:05.251Z,3.89
2018-12-27T11:11:33.958Z,3.88
2018-12-27T11:14:02.607Z,3.87
2018-12-27T11:16:31.251Z,3.89
2018-12-27T11:18:59.893Z,3.64
2018-12-27T11:21:28.537Z,3.67
2018-12-27T11:23:57.184Z,3.49
2018-12-27T11:26:26.119Z,3.38
2018-12-27T11:28:54.755Z,3.32
2018-12-27T11:31:23.400Z,3.42
2018-12-27T11:33:53.042Z,3.56
2018-12-27T11:36:21.678Z,3.27
2018-12-27T11:38:50.330Z,3.12
2018-12-27T11:41:19.266Z,3.08
2018-12-27T11:43:47.896Z,3.09
2018-12-27T11:46:16.542Z,3.26
2018-12-27T11:48:45.188Z,3.17
2018-12-27T11:51:13.827Z,3.13
2018-12-27T11:53:42.475Z,3.44
2018-12-27T11:56:11.246Z,3.28
2018-12-27T11:58:39.904Z,3.47
2018-12-27T12:01:08.550Z,3.39
2018-12-27T12:03:37.192Z,3.26
2018-12-27T12:06:05.839Z,3.39
2018-12-27T12:08:34.500Z,3.49
2018-12-27T12:11:03.299Z,3.52
2018-12-27T12:13:31.935Z,3.51
2018-12-27T12:16:00.831Z,3.59
2018-12-27T12:18:29.455Z,3.69
2018-12-27T12:20:58.075Z,3.80
2018-12-27T12:23:26.723Z,3.65
2018-12-27T12:25:55.369Z,3.69
2018-12-27T12:28:23.993Z,3.68
2018-12-27T12:30:52.635Z,3.71
2018-12-27T12:33:21.281Z,3.74
2018-12-27T12:35:49.994Z,3.86
2018-12-27T12:38:18.655Z,3.83
2018-12-27T12:40:47.400Z,4.04
2018-12-27T12:43:16.094Z,4.04
2018-12-27T12:45:45.155Z,4.00
2018-12-27T12:48:13.976Z,4.06
2018-12-27T12:50:43.106Z,4.38
2018-12-27T12:53:11.753Z,4.48
2018-12-27T12:55:40.784Z,4.59
2018-12-27T12:58:09.440Z,4.57
2018-12-27T13:00:38.080Z,4.84
2018-12-27T13:03:07.047Z,4.93
2018-12-27T13:05:35.695Z,5.04
2018-12-27T13:08:04.337Z,5.04
2018-12-27T13:10:32.973Z,5.72
2018-12-27T13:13:01.627Z,5.59
2018-12-27T13:15:30.552Z,5.18
2018-12-27T13:17:59.539Z,4.96
2018-12-27T13:20:28.195Z,4.85
2018-12-27T13:22:56.827Z,4.96
2018-12-27T13:25:25.831Z,4.79
2018-12-27T13:27:54.501Z,4.71
2018-12-27T13:30:23.160Z,4.98
2018-12-27T13:32:52.167Z,4.71
2018-12-27T13:35:20.914Z,5.02
2018-12-27T13:37:49.602Z,4.75
2018-12-27T13:40:18.562Z,4.53
2018-12-27T13:42:47.196Z,4.27
2018-12-27T13:45:15.930Z,4.26
2018-12-27T13:47:44.588Z,4.46
2018-12-27T13:50:13.228Z,4.66
2018-12-27T13:52:41.866Z,4.67
2018-12-27T13:55:10.590Z,4.62
2018-12-27T13:57:39.224Z,4.47
2018-12-27T14:00:08.026Z,4.37
2018-12-27T14:02:36.728Z,4.46
2018-12-27T14:05:05.368Z,4.20
2018-12-27T14:07:34.020Z,3.93
2018-12-27T14:10:02.726Z,3.93
2018-12-27T14:12:31.374Z,4.18
2018-12-27T14:15:00.039Z,4.22
2018-12-27T14:17:28.683Z,4.23
2018-12-27T14:19:57.387Z,4.06
2018-12-27T14:22:26.065Z,3.98
2018-12-27T14:24:58.106Z,3.92
2018-12-27T14:27:25.059Z,3.82
2018-12-27T14:29:53.741Z,3.81
2018-12-27T14:32:22.382Z,3.75
2018-12-27T14:34:51.407Z,3.63
2018-12-27T14:37:20.391Z,3.54
2018-12-27T14:39:49.019Z,3.65
2018-12-27T14:42:17.699Z,3.64
2018-12-27T14:44:46.471Z,3.64
2018-12-27T14:47:15.106Z,3.43
2018-12-27T14:49:43.864Z,3.25
2018-12-27T14:52:12.530Z,3.21
2018-12-27T14:54:41.166Z,3.09
2018-12-27T14:57:09.798Z,2.83
2018-12-27T14:59:38.532Z,2.68
2018-12-27T15:02:07.191Z,2.53
2018-12-27T15:04:35.919Z,2.38
2018-12-27T15:07:04.937Z,2.17
2018-12-27T15:09:33.571Z,1.99
2018-12-27T15:12:02.494Z,1.74
2018-12-27T15:14:31.498Z,1.54
2018-12-27T15:17:00.499Z,1.41
2018-12-27T15:19:29.227Z,1.31
2018-12-27T15:21:57.867Z,1.32
2018-12-27T15:24:26.835Z,1.21
2018-12-27T15:26:55.727Z,1.17
2018-12-27T15:29:24.381Z,1.17
2018-12-27T15:31:53.015Z,1.25
2018-12-27T15:34:21.653Z,1.27
2018-12-27T15:36:54.339Z,1.26
2018-12-27T15:39:20.641Z,1.32
2018-12-27T15:41:49.275Z,1.36
2018-12-27T15:44:17.976Z,1.38
2018-12-27T15:46:46.654Z,1.39
2018-12-27T15:49:15.302Z,1.45
2018-12-27T15:51:44.030Z,1.40
2018-12-27T15:54:12.661Z,1.50
2018-12-27T15:56:41.296Z,1.53
2018-12-27T15:59:09.951Z,1.53
2018-12-27T16:01:38.834Z,1.51
2018-12-27T16:04:07.492Z,1.53
2018-12-27T16:06:36.148Z,1.44
2018-12-27T16:09:06.542Z,1.39
2018-12-27T16:11:35.179Z,1.42
2018-12-27T16:14:03.910Z,1.37
2018-12-27T16:16:32.614Z,1.46
2018-12-27T16:19:01.256Z,1.38
2018-12-27T16:21:29.908Z,1.41
2018-12-27T16:23:58.616Z,1.43
2018-12-27T16:26:27.669Z,1.49
2018-12-27T16:28:56.317Z,1.38
2018-12-27T16:31:24.956Z,1.29
2018-12-27T16:33:53.603Z,1.24
2018-12-27T16:36:22.240Z,1.32
2018-12-27T16:38:51.043Z,1.31
2018-12-27T16:41:19.702Z,1.39
2018-12-27T16:43:48.413Z,1.39
2018-12-27T16:46:17.051Z,1.34
2018-12-27T16:48:45.697Z,1.25
2018-12-27T16:51:14.349Z,1.22
2018-12-27T16:53:43.014Z,1.27
2018-12-27T16:56:11.679Z,1.30
2018-12-27T16:58:40.399Z,1.30
2018-12-27T17:01:09.031Z,1.27
2018-12-27T17:03:37.681Z,1.23
2018-12-27T17:06:06.762Z,1.17
2018-12-27T17:08:35.395Z,1.13
2018-12-27T17:11:04.031Z,1.14
2018-12-27T17:13:32.790Z,1.12
2018-12-27T17:16:02.535Z,1.13
2018-12-27T17:18:31.194Z,1.18
2018-12-27T17:21:00.417Z,1.09
2018-12-27T17:23:29.318Z,1.14
2018-12-27T17:25:57.965Z,1.13
2018-12-27T17:28:26.731Z,1.07
2018-12-27T17:30:55.369Z,1.09
2018-12-27T17:33:24.031Z,1.06
2018-12-27T17:35:52.810Z,1.00
2018-12-27T17:38:21.861Z,1.11
2018-12-27T17:40:50.608Z,1.16
2018-12-27T17:43:20.344Z,1.02
2018-12-27T17:45:49.069Z,1.00
2018-12-27T17:48:17.979Z,1.07
2018-12-27T17:50:47.104Z,1.06
2018-12-27T17:53:16.700Z,1.09
2018-12-27T17:55:46.659Z,1.11
2018-12-27T17:58:15.819Z,1.22
2018-12-27T18:00:44.458Z,1.22
2018-12-27T18:03:13.110Z,1.16
2018-12-27T18:05:41.786Z,1.13
2018-12-27T18:08:10.595Z,1.12
2018-12-27T18:10:39.331Z,1.11
2018-12-27T18:13:07.995Z,1.16
2018-12-27T18:15:36.631Z,1.12
2018-12-27T18:18:05.384Z,1.07
2018-12-27T18:20:34.683Z,1.09
2018-12-27T18:23:03.363Z,1.07
2018-12-27T18:25:32.353Z,1.12
2018-12-27T18:28:01.054Z,1.10
2018-12-27T18:30:29.730Z,1.05
2018-12-27T18:32:59.268Z,1.08
2018-12-27T18:35:28.152Z,1.06
2018-12-27T18:37:56.814Z,1.05
2018-12-27T18:40:25.640Z,1.10
2018-12-27T18:42:54.294Z,1.16
2018-12-27T18:45:23.090Z,1.00
2018-12-27T18:47:51.756Z,1.01
2018-12-27T18:50:20.418Z,1.01
2018-12-27T18:52:49.056Z,1.05
2018-12-27T18:55:20.281Z,1.08
2018-12-27T18:57:48.144Z,0.99
2018-12-27T19:00:16.862Z,0.97
2018-12-27T19:02:45.504Z,1.00
2018-12-27T19:05:14.177Z,0.92
2018-12-27T19:07:45.128Z,0.94
2018-12-27T19:10:13.375Z,1.02
2018-12-27T19:13:02.801Z,0.99
2018-12-27T19:15:32.146Z,0.98
2018-12-27T19:18:09.954Z,1.03
2018-12-27T19:20:40.647Z,1.00
2018-12-27T19:23:17.274Z,1.00
2018-12-27T19:25:45.963Z,0.97
2018-12-27T19:28:14.942Z,0.98
2018-12-27T19:30:43.674Z,0.97
2018-12-27T19:33:12.470Z,1.00
2018-12-27T19:35:41.114Z,0.97
2018-12-27T19:38:10.856Z,0.91
2018-12-27T19:40:39.838Z,0.94
2018-12-27T19:43:08.458Z,1.01
2018-12-27T19:45:38.548Z,0.99
2018-12-27T19:48:07.238Z,0.95
2018-12-27T19:50:37.166Z,0.99
2018-12-27T19:53:06.862Z,0.99
2018-12-27T19:55:35.579Z,0.96
2018-12-27T19:58:04.324Z,0.88
2018-12-27T20:00:33.017Z,0.89
2018-12-27T20:03:01.666Z,0.93
2018-12-27T20:05:30.381Z,0.87
2018-12-27T20:07:59.655Z,0.91
2018-12-27T20:10:28.715Z,0.94
2018-12-27T20:12:57.738Z,0.96
2018-12-27T20:15:26.883Z,1.03
2018-12-27T20:17:55.527Z,0.91
2018-12-27T20:20:24.260Z,0.93
2018-12-27T20:22:53.055Z,0.90
2018-12-27T20:25:21.731Z,0.94
2018-12-27T20:27:50.396Z,0.89
2018-12-27T20:30:19.063Z,0.87
2018-12-27T20:32:47.755Z,0.71
2018-12-27T20:35:16.401Z,0.68
2018-12-27T20:37:45.047Z,0.67
2018-12-27T20:40:13.832Z,0.58
2018-12-27T20:42:42.479Z,0.58
2018-12-27T20:45:11.201Z,0.58
2018-12-27T20:47:39.862Z,0.53
2018-12-27T20:50:08.513Z,0.60
2018-12-27T20:52:37.158Z,0.55
2018-12-27T20:55:06.816Z,0.56
2018-12-27T20:57:35.846Z,0.63
2018-12-27T21:00:04.832Z,0.48
2018-12-27T21:02:34.124Z,0.57
2018-12-27T21:05:02.772Z,0.54
2018-12-27T21:07:32.505Z,0.59
2018-12-27T21:10:01.156Z,0.64
2018-12-27T21:12:29.871Z,0.66
2018-12-27T21:14:58.531Z,0.67
2018-12-27T21:17:27.171Z,0.73
2018-12-27T21:19:55.823Z,0.84
2018-12-27T21:22:24.477Z,0.76
2018-12-27T21:24:53.200Z,0.75
2018-12-27T21:27:21.866Z,0.75
2018-12-27T21:29:50.483Z,0.77
2018-12-27T21:32:19.263Z,0.77
2018-12-27T21:34:48.719Z,0.75
2018-12-27T21:37:17.517Z,0.74
2018-12-27T21:39:46.226Z,0.74
2018-12-27T21:42:14.864Z,0.70
2018-12-27T21:44:43.528Z,0.67
2018-12-27T21:47:12.154Z,0.73
2018-12-27T21:49:40.792Z,0.66
2018-12-27T21:52:09.453Z,0.52
2018-12-27T21:54:38.188Z,0.45
2018-12-27T21:57:06.979Z,0.39
2018-12-27T21:59:35.640Z,0.43
2018-12-27T22:02:04.272Z,0.49
2018-12-27T22:04:33.469Z,0.53
2018-12-27T22:07:03.222Z,0.55
2018-12-27T22:09:31.854Z,0.47
2018-12-27T22:12:00.641Z,0.54
2018-12-27T22:14:29.439Z,0.62
2018-12-27T22:16:58.357Z,0.73
2018-12-27T22:19:27.141Z,0.74
2018-12-27T22:21:55.790Z,0.63
2018-12-27T22:24:24.431Z,0.75
2018-12-27T22:26:53.123Z,0.69
2018-12-27T22:29:21.843Z,0.70
2018-12-27T22:31:50.987Z,0.66
2018-12-27T22:34:20.667Z,0.58
2018-12-27T22:36:49.723Z,0.59
2018-12-27T22:39:18.379Z,0.57
2018-12-27T22:41:47.016Z,0.60
2018-12-27T22:44:15.827Z,0.51
2018-12-27T22:46:44.463Z,0.52
2018-12-27T22:49:13.449Z,0.55
2018-12-27T22:51:42.103Z,0.54
2018-12-27T22:54:10.741Z,0.56
2018-12-27T22:56:39.964Z,0.57
2018-12-27T22:59:09.020Z,0.56
2018-12-27T23:01:37.656Z,0.59
2018-12-27T23:04:07.115Z,0.51
2018-12-27T23:06:35.770Z,0.56
2018-12-27T23:09:05.506Z,0.57
2018-12-27T23:11:34.720Z,0.56
2018-12-27T23:14:03.542Z,0.56
2018-12-27T23:16:32.252Z,0.56
2018-12-27T23:19:00.892Z,0.58
2018-12-27T23:21:29.568Z,0.56
2018-12-27T23:23:58.248Z,0.58
2018-12-27T23:26:26.893Z,0.61
2018-12-27T23:28:55.940Z,0.65
2018-12-27T23:31:24.603Z,0.58
2018-12-27T23:33:53.717Z,0.47
2018-12-27T23:36:22.639Z,0.52
2018-12-27T23:38:51.283Z,0.65
2018-12-27T23:41:19.924Z,0.72
2018-12-27T23:43:49.321Z,0.66
2018-12-27T23:46:17.951Z,0.63
2018-12-27T23:48:46.911Z,0.49
2018-12-27T23:51:15.973Z,0.51
2018-12-27T23:53:44.671Z,0.46
2018-12-27T23:56:13.359Z,0.51
2018-12-27T23:58:42.032Z,0.55
